createdAt,value
2018-12-17T00:01:04.617Z,82.70
2018-12-17T00:03:33.105Z,82.30
2018-12-17T00:06:01.726Z,82.11
2018-12-17T00:08:32.166Z,83.08
2018-12-17T00:11:00.969Z,83.10
2018-12-17T00:13:29.500Z,83.61
2018-12-17T00:15:58.090Z,83.14
2018-12-17T00:18:26.646Z,82.88
2018-12-17T00:20:55.177Z,83.36
2018-12-17T00:23:23.752Z,83.79
2018-12-17T00:25:52.347Z,82.95
2018-12-17T00:28:20.861Z,83.52
2018-12-17T00:30:49.432Z,83.56
2018-12-17T00:33:17.992Z,83.58
2018-12-17T00:35:46.520Z,84.30
2018-12-17T00:38:15.092Z,83.69
2018-12-17T00:40:43.647Z,83.79
2018-12-17T00:43:12.244Z,83.37
2018-12-17T00:45:40.774Z,83.97
2018-12-17T00:48:09.371Z,83.03
2018-12-17T00:50:38.001Z,83.56
2018-12-17T00:53:06.605Z,82.93
2018-12-17T00:55:35.151Z,83.40
2018-12-17T00:58:04.336Z,83.48
2018-12-17T01:00:32.965Z,83.26
2018-12-17T01:03:01.487Z,82.55
2018-12-17T01:05:30.109Z,83.53
2018-12-17T01:07:58.685Z,82.57
2018-12-17T01:10:27.224Z,82.64
2018-12-17T01:12:55.885Z,82.28
2018-12-17T01:15:24.444Z,82.60
2018-12-17T01:17:52.971Z,83.30
2018-12-17T01:20:21.514Z,82.67
2018-12-17T01:22:50.135Z,83.38
2018-12-17T01:25:18.660Z,82.90
2018-12-17T01:27:47.178Z,82.79
2018-12-17T01:30:15.857Z,82.70
2018-12-17T01:32:44.528Z,83.02
2018-12-17T01:35:13.134Z,83.20
2018-12-17T01:37:41.723Z,82.82
2018-12-17T01:40:10.425Z,83.22
2018-12-17T01:42:38.962Z,83.44
2018-12-17T01:45:07.774Z,82.67
2018-12-17T01:47:36.598Z,82.49
2018-12-17T01:50:05.331Z,83.01
2018-12-17T01:52:33.912Z,82.37
2018-12-17T01:55:02.505Z,82.88
2018-12-17T01:57:31.087Z,82.67
2018-12-17T01:59:59.614Z,82.80
2018-12-17T02:02:28.161Z,83.16
2018-12-17T02:04:56.748Z,82.57
2018-12-17T02:07:25.254Z,83.23
2018-12-17T02:09:53.744Z,83.24
2018-12-17T02:12:22.343Z,83.24
2018-12-17T02:14:50.863Z,83.23
2018-12-17T02:17:19.420Z,82.48
2018-12-17T02:19:47.983Z,82.66
2018-12-17T02:22:16.507Z,83.02
2018-12-17T02:24:45.059Z,83.17
2018-12-17T02:27:13.766Z,83.50
2018-12-17T02:29:42.730Z,82.65
2018-12-17T02:32:11.323Z,82.94
2018-12-17T02:34:39.915Z,82.59
2018-12-17T02:37:08.420Z,82.89
2018-12-17T02:39:36.927Z,82.15
2018-12-17T02:42:05.542Z,81.55
2018-12-17T02:44:34.178Z,81.87
2018-12-17T02:47:02.791Z,81.95
2018-12-17T02:49:31.595Z,82.28
2018-12-17T02:52:00.124Z,82.12
2018-12-17T02:54:28.774Z,81.78
2018-12-17T02:56:57.328Z,82.08
2018-12-17T02:59:25.928Z,82.10
2018-12-17T03:01:54.524Z,81.63
2018-12-17T03:04:23.105Z,81.31
2018-12-17T03:06:51.743Z,81.50
2018-12-17T03:09:20.240Z,81.02
2018-12-17T03:11:48.811Z,80.70
2018-12-17T03:14:17.342Z,81.02
2018-12-17T03:16:45.869Z,81.03
2018-12-17T03:19:14.542Z,81.00
2018-12-17T03:21:43.149Z,81.88
2018-12-17T03:24:11.688Z,82.33
2018-12-17T03:26:40.202Z,81.66
2018-12-17T03:29:08.795Z,81.95
2018-12-17T03:31:37.760Z,82.36
2018-12-17T03:34:06.327Z,82.30
2018-12-17T03:36:34.834Z,81.55
2018-12-17T03:39:04.324Z,81.65
2018-12-17T03:41:32.872Z,81.25
2018-12-17T03:44:01.412Z,82.31
2018-12-17T03:46:29.946Z,82.05
2018-12-17T03:48:58.487Z,81.71
2018-12-17T03:51:27.012Z,82.16
2018-12-17T03:53:55.566Z,81.63
2018-12-17T03:56:24.132Z,82.49
2018-12-17T03:58:59.282Z,82.62
2018-12-17T04:01:23.338Z,81.71
2018-12-17T04:03:51.919Z,82.28
2018-12-17T04:06:20.479Z,81.31
2018-12-17T04:08:49.030Z,81.60
2018-12-17T04:11:17.690Z,82.43
2018-12-17T04:13:46.217Z,81.27
2018-12-17T04:16:14.771Z,82.44
2018-12-17T04:18:43.253Z,82.05
2018-12-17T04:21:11.857Z,81.70
2018-12-17T04:23:40.439Z,81.46
2018-12-17T04:26:09.004Z,82.48
2018-12-17T04:28:37.561Z,81.58
2018-12-17T04:31:06.142Z,82.46
2018-12-17T04:33:34.659Z,82.11
2018-12-17T04:36:03.218Z,82.30
2018-12-17T04:38:31.789Z,81.74
2018-12-17T04:41:00.485Z,82.47
2018-12-17T04:43:29.065Z,81.65
2018-12-17T04:45:57.615Z,82.57
2018-12-17T04:48:26.125Z,82.87
2018-12-17T04:50:54.632Z,81.91
2018-12-17T04:53:23.119Z,83.03
2018-12-17T04:55:51.680Z,82.66
2018-12-17T04:58:20.287Z,83.23
2018-12-17T05:00:48.806Z,83.87
2018-12-17T05:03:17.481Z,82.94
2018-12-17T05:05:46.037Z,82.79
2018-12-17T05:08:14.610Z,82.68
2018-12-17T05:10:43.287Z,82.72
2018-12-17T05:13:11.940Z,82.76
2018-12-17T05:15:40.527Z,83.03
2018-12-17T05:18:09.160Z,83.14
2018-12-17T05:20:37.714Z,83.35
2018-12-17T05:23:06.320Z,82.87
2018-12-17T05:25:34.848Z,83.82
2018-12-17T05:28:03.546Z,83.84
2018-12-17T05:30:32.069Z,83.26
2018-12-17T05:33:01.528Z,82.38
2018-12-17T05:35:30.052Z,83.95
2018-12-17T05:37:58.952Z,83.31
2018-12-17T05:40:27.551Z,83.81
2018-12-17T05:42:56.166Z,83.87
2018-12-17T05:45:24.726Z,84.23
2018-12-17T05:47:53.271Z,83.64
2018-12-17T05:50:21.915Z,83.48
2018-12-17T05:52:50.480Z,83.62
2018-12-17T05:55:19.074Z,84.32
2018-12-17T05:57:47.643Z,85.21
2018-12-17T06:00:16.161Z,84.11
2018-12-17T06:02:44.816Z,83.40
2018-12-17T06:05:13.462Z,83.71
2018-12-17T06:07:41.973Z,84.40
2018-12-17T06:10:10.570Z,84.09
2018-12-17T06:13:24.528Z,84.28
2018-12-17T06:15:53.010Z,84.13
2018-12-17T06:18:23.988Z,84.62
2018-12-17T06:20:53.769Z,83.57
2018-12-17T06:23:22.279Z,84.21
2018-12-17T06:25:52.894Z,84.04
2018-12-17T06:28:21.446Z,84.33
2018-12-17T06:30:50.049Z,83.74
2018-12-17T06:33:18.636Z,84.45
2018-12-17T06:38:22.111Z,84.68
2018-12-17T06:40:50.680Z,84.20
2018-12-17T06:43:19.255Z,83.50
2018-12-17T06:45:47.890Z,83.81
2018-12-17T06:48:17.235Z,84.19
2018-12-17T06:50:46.153Z,83.82
2018-12-17T06:53:14.808Z,83.57
2018-12-17T06:55:43.382Z,82.67
2018-12-17T06:58:12.343Z,83.19
2018-12-17T07:00:40.947Z,82.86
2018-12-17T07:03:09.492Z,83.05
2018-12-17T07:05:38.152Z,82.66
2018-12-17T07:08:06.701Z,82.92
2018-12-17T07:10:35.267Z,82.37
2018-12-17T07:13:03.862Z,83.02
2018-12-17T07:15:32.398Z,83.25
2018-12-17T07:18:01.021Z,83.08
2018-12-17T07:20:29.594Z,82.47
2018-12-17T07:22:58.109Z,82.62
2018-12-17T07:25:26.736Z,83.17
2018-12-17T07:27:55.319Z,82.72
2018-12-17T07:30:23.990Z,82.64
2018-12-17T07:32:52.655Z,82.36
2018-12-17T07:35:22.123Z,82.73
2018-12-17T07:37:50.696Z,82.96
2018-12-17T07:40:19.264Z,82.36
2018-12-17T07:42:47.761Z,82.22
2018-12-17T07:45:16.322Z,82.30
2018-12-17T07:47:44.853Z,82.22
2018-12-17T07:50:13.484Z,81.05
2018-12-17T07:52:41.993Z,81.34
2018-12-17T07:55:10.705Z,81.41
2018-12-17T07:57:39.290Z,81.06
2018-12-17T08:00:15.845Z,80.39
2018-12-17T08:02:44.484Z,80.04
2018-12-17T08:05:13.150Z,80.58
2018-12-17T08:07:41.705Z,79.45
2018-12-17T08:10:10.379Z,79.02
2018-12-17T08:12:38.924Z,78.30
2018-12-17T08:15:07.634Z,78.60
2018-12-17T08:17:36.499Z,78.32
2018-12-17T08:20:05.607Z,78.10
2018-12-17T08:22:34.465Z,78.55
2018-12-17T08:25:03.219Z,77.67
2018-12-17T08:27:31.891Z,78.08
2018-12-17T08:30:03.942Z,78.01
2018-12-17T08:32:31.033Z,78.00
2018-12-17T08:34:59.612Z,77.17
2018-12-17T08:37:28.211Z,76.83
2018-12-17T08:39:56.740Z,76.47
2018-12-17T08:42:25.328Z,75.73
2018-12-17T08:44:53.806Z,76.11
2018-12-17T08:47:28.978Z,74.02
2018-12-17T08:49:57.490Z,73.11
2018-12-17T08:52:26.164Z,71.62
2018-12-17T08:54:54.965Z,69.92
2018-12-17T08:57:23.518Z,70.33
2018-12-17T08:59:52.096Z,70.46
2018-12-17T09:02:20.656Z,71.52
2018-12-17T09:04:49.229Z,70.57
2018-12-17T09:07:17.781Z,69.45
2018-12-17T09:09:46.361Z,69.26
2018-12-17T09:12:14.960Z,68.92
2018-12-17T09:14:43.455Z,68.04
2018-12-17T09:17:11.982Z,68.59
2018-12-17T09:19:40.766Z,69.41
2018-12-17T09:22:09.412Z,70.38
2018-12-17T09:24:38.054Z,70.85
2018-12-17T09:27:06.598Z,71.34
2018-12-17T09:29:35.219Z,72.12
2018-12-17T09:32:03.844Z,71.83
2018-12-17T09:34:32.419Z,70.70
2018-12-17T09:37:01.055Z,70.97
2018-12-17T09:39:29.635Z,70.69
2018-12-17T09:41:58.178Z,70.29
2018-12-17T09:44:26.817Z,71.25
2018-12-17T09:46:55.430Z,71.50
2018-12-17T09:49:24.011Z,71.09
2018-12-17T09:51:52.664Z,70.98
2018-12-17T09:54:21.187Z,70.69
2018-12-17T09:56:49.756Z,71.78
2018-12-17T09:59:18.581Z,71.43
2018-12-17T10:01:49.239Z,71.91
2018-12-17T10:04:17.766Z,71.67
2018-12-17T10:06:46.343Z,72.01
2018-12-17T10:09:14.970Z,72.92
2018-12-17T10:11:43.490Z,72.60
2018-12-17T10:14:12.011Z,73.09
2018-12-17T10:16:40.652Z,73.04
2018-12-17T10:19:09.219Z,72.64
2018-12-17T10:21:37.774Z,72.93
2018-12-17T10:24:06.561Z,72.71
2018-12-17T10:26:35.528Z,73.17
2018-12-17T10:29:04.177Z,72.66
2018-12-17T10:31:32.728Z,73.19
2018-12-17T10:34:01.306Z,73.82
2018-12-17T10:36:29.898Z,73.53
2018-12-17T10:38:58.417Z,73.75
2018-12-17T10:41:27.013Z,72.78
2018-12-17T10:43:55.527Z,72.58
2018-12-17T10:46:24.085Z,72.73
2018-12-17T10:48:52.589Z,71.64
2018-12-17T10:51:21.118Z,72.21
2018-12-17T10:53:49.669Z,71.92
2018-12-17T10:56:18.246Z,72.03
2018-12-17T10:58:46.774Z,71.80
2018-12-17T11:01:20.435Z,70.76
2018-12-17T11:03:55.809Z,70.73
2018-12-17T11:06:24.304Z,70.78
2018-12-17T11:08:52.987Z,70.73
2018-12-17T11:11:21.553Z,71.49
2018-12-17T11:13:50.071Z,70.91
2018-12-17T11:16:18.711Z,70.02
2018-12-17T11:18:47.320Z,69.78
2018-12-17T11:21:16.251Z,70.09
2018-12-17T11:23:44.900Z,71.23
2018-12-17T11:26:13.490Z,71.42
2018-12-17T11:28:42.108Z,70.83
2018-12-17T11:31:10.604Z,70.10
2018-12-17T11:33:39.156Z,70.45
2018-12-17T11:36:07.736Z,69.84
2018-12-17T11:38:36.456Z,70.97
2018-12-17T11:41:05.050Z,70.98
2018-12-17T11:43:33.623Z,71.18
2018-12-17T11:46:06.299Z,70.81
2018-12-17T11:48:35.150Z,69.96
2018-12-17T11:51:03.696Z,70.01
2018-12-17T11:53:32.234Z,70.29
2018-12-17T11:56:00.810Z,70.49
2018-12-17T11:58:29.479Z,70.48
2018-12-17T12:01:01.826Z,70.90
2018-12-17T12:03:31.953Z,70.73
2018-12-17T12:06:00.547Z,72.00
2018-12-17T12:08:29.182Z,71.24
2018-12-17T12:10:57.703Z,71.51
2018-12-17T12:13:26.311Z,71.75
2018-12-17T12:15:54.803Z,71.72
2018-12-17T12:18:23.347Z,72.43
2018-12-17T12:20:51.938Z,72.44
2018-12-17T12:23:20.506Z,72.19
2018-12-17T12:25:49.113Z,72.46
2018-12-17T12:28:17.646Z,73.21
2018-12-17T12:30:46.275Z,73.13
2018-12-17T12:33:14.853Z,73.06
2018-12-17T12:35:43.402Z,73.34
2018-12-17T12:38:11.966Z,74.04
2018-12-17T12:40:40.555Z,74.22
2018-12-17T12:43:09.079Z,74.39
2018-12-17T12:45:38.611Z,74.49
2018-12-17T12:48:07.151Z,74.85
2018-12-17T12:50:35.737Z,74.12
2018-12-17T12:53:04.291Z,73.49
2018-12-17T12:55:32.893Z,74.09
2018-12-17T12:58:03.843Z,73.81
2018-12-17T13:00:32.128Z,74.31
2018-12-17T13:03:00.784Z,74.84
2018-12-17T13:05:29.476Z,75.71
2018-12-17T13:07:58.029Z,74.02
2018-12-17T13:10:26.678Z,74.58
2018-12-17T13:12:55.269Z,74.64
2018-12-17T13:15:23.876Z,74.60
2018-12-17T13:17:52.435Z,74.21
2018-12-17T13:20:20.982Z,74.57
2018-12-17T13:22:49.572Z,75.42
2018-12-17T13:25:23.081Z,75.47
2018-12-17T13:27:51.655Z,75.14
2018-12-17T13:30:20.401Z,74.95
2018-12-17T13:32:48.955Z,75.13
2018-12-17T13:35:17.549Z,74.61
2018-12-17T13:37:46.130Z,74.89
2018-12-17T13:40:14.740Z,75.19
2018-12-17T13:42:43.346Z,75.04
2018-12-17T13:45:12.553Z,74.67
2018-12-17T13:47:41.100Z,74.84
2018-12-17T13:50:14.924Z,75.33
2018-12-17T13:52:47.007Z,75.68
2018-12-17T13:55:15.867Z,75.30
2018-12-17T13:57:44.459Z,74.07
2018-12-17T14:00:13.517Z,74.53
2018-12-17T14:02:42.063Z,74.28
2018-12-17T14:05:10.684Z,74.22
2018-12-17T14:07:39.246Z,74.79
2018-12-17T14:10:15.270Z,74.87
2018-12-17T14:12:43.850Z,75.52
2018-12-17T14:15:12.427Z,76.52
2018-12-17T14:17:45.101Z,76.91
2018-12-17T14:20:18.838Z,76.67
2018-12-17T14:22:47.428Z,77.14
2018-12-17T14:25:16.014Z,77.81
2018-12-17T14:27:44.602Z,77.35
2018-12-17T14:30:13.192Z,77.81
2018-12-17T14:32:41.820Z,78.33
2018-12-17T14:35:10.403Z,77.73
2018-12-17T14:37:44.320Z,77.46
2018-12-17T14:40:12.997Z,77.56
2018-12-17T14:42:41.552Z,77.81
2018-12-17T14:45:10.423Z,77.57
2018-12-17T14:47:39.137Z,78.18
2018-12-17T14:50:07.832Z,78.12
2018-12-17T14:52:36.422Z,77.78
2018-12-17T14:55:05.869Z,78.34
2018-12-17T14:57:34.427Z,78.48
2018-12-17T15:00:02.951Z,78.30
2018-12-17T15:02:31.474Z,78.18
2018-12-17T15:05:00.117Z,78.50
2018-12-17T15:07:29.814Z,79.12
2018-12-17T15:09:58.662Z,79.04
2018-12-17T15:12:27.344Z,78.70
2018-12-17T15:14:56.022Z,79.62
2018-12-17T15:17:24.656Z,79.67
2018-12-17T15:19:53.382Z,79.60
2018-12-17T15:22:21.985Z,79.54
2018-12-17T15:24:50.581Z,79.81
2018-12-17T15:27:19.184Z,80.02
2018-12-17T15:29:47.864Z,79.67
2018-12-17T15:32:16.429Z,80.25
2018-12-17T15:34:45.066Z,80.02
2018-12-17T15:37:13.676Z,79.76
2018-12-17T15:39:42.203Z,80.26
2018-12-17T15:42:10.794Z,79.87
2018-12-17T15:44:39.392Z,79.72
2018-12-17T15:47:08.096Z,79.56
2018-12-17T15:49:36.704Z,79.19
2018-12-17T15:52:05.297Z,79.78
2018-12-17T15:54:33.915Z,79.56
2018-12-17T15:57:02.570Z,80.09
2018-12-17T15:59:31.368Z,79.10
2018-12-17T16:06:51.288Z,79.32
2018-12-17T16:09:19.812Z,79.28
2018-12-17T16:11:48.528Z,79.43
2018-12-17T16:14:18.223Z,79.20
2018-12-17T16:16:46.807Z,78.60
2018-12-17T16:19:15.399Z,78.16
2018-12-17T16:21:44.933Z,78.32
2018-12-17T16:24:13.508Z,77.17
2018-12-17T16:26:42.129Z,77.83
2018-12-17T16:29:10.727Z,78.75
2018-12-17T16:31:39.372Z,79.14
2018-12-17T16:34:07.974Z,78.86
2018-12-17T16:36:36.744Z,78.46
2018-12-17T16:39:07.475Z,78.98
2018-12-17T16:41:36.073Z,79.05
2018-12-17T16:44:04.654Z,79.53
2018-12-17T16:46:33.300Z,80.67
2018-12-17T16:49:02.030Z,79.67
2018-12-17T16:51:30.671Z,80.80
2018-12-17T16:53:59.221Z,81.46
2018-12-17T16:56:27.806Z,81.83
2018-12-17T16:58:56.373Z,83.02
2018-12-17T17:01:25.061Z,83.18
2018-12-17T17:03:53.642Z,82.56
2018-12-17T17:06:22.232Z,82.90
2018-12-17T17:08:50.821Z,83.60
2018-12-17T17:11:19.460Z,83.93
2018-12-17T17:13:48.313Z,83.42
2018-12-17T17:16:16.967Z,84.07
2018-12-17T17:18:45.592Z,83.86
2018-12-17T17:21:14.150Z,83.50
2018-12-17T17:23:42.728Z,83.34
2018-12-17T17:26:11.331Z,83.52
2018-12-17T17:28:39.898Z,83.62
2018-12-17T17:31:08.429Z,82.67
2018-12-17T17:33:37.019Z,82.81
2018-12-17T17:36:05.647Z,82.51
2018-12-17T17:38:34.195Z,82.46
2018-12-17T17:41:03.037Z,82.72
2018-12-17T17:43:31.579Z,82.13
2018-12-17T17:46:00.122Z,82.45
2018-12-17T17:48:28.686Z,82.35
2018-12-17T17:50:57.328Z,82.83
2018-12-17T17:53:26.034Z,83.17
2018-12-17T17:55:54.652Z,82.70
2018-12-17T17:58:23.220Z,82.64
2018-12-17T18:00:51.953Z,82.42
2018-12-17T18:03:20.703Z,81.69
2018-12-17T18:05:49.277Z,82.57
2018-12-17T18:08:17.862Z,80.41
2018-12-17T18:10:46.770Z,79.65
2018-12-17T18:13:15.324Z,80.23
2018-12-17T18:15:44.078Z,79.39
2018-12-17T18:18:12.637Z,80.29
2018-12-17T18:20:41.270Z,80.50
2018-12-17T18:23:09.776Z,80.28
2018-12-17T18:25:38.369Z,79.79
2018-12-17T18:28:07.314Z,80.15
2018-12-17T18:30:36.388Z,80.57
2018-12-17T18:33:04.996Z,80.38
2018-12-17T18:35:34.167Z,80.39
2018-12-17T18:38:02.722Z,80.40
2018-12-17T18:40:31.383Z,80.67
2018-12-17T18:43:00.196Z,80.47
2018-12-17T18:45:28.772Z,80.43
2018-12-17T18:47:57.379Z,80.95
2018-12-17T18:50:26.042Z,81.41
2018-12-17T18:52:54.600Z,81.65
2018-12-17T18:55:23.171Z,82.42
2018-12-17T18:57:52.100Z,82.02
2018-12-17T19:00:20.797Z,82.44
2018-12-17T19:02:49.487Z,82.10
2018-12-17T19:05:18.578Z,82.49
2018-12-17T19:07:47.143Z,82.61
2018-12-17T19:10:15.724Z,82.79
2018-12-17T19:12:44.276Z,82.22
2018-12-17T19:15:13.084Z,83.06
2018-12-17T19:17:42.657Z,83.32
2018-12-17T19:20:11.313Z,83.57
2018-12-17T19:22:40.821Z,83.52
2018-12-17T19:25:09.382Z,83.31
2018-12-17T19:27:38.012Z,84.06
2018-12-17T19:30:14.498Z,83.28
2018-12-17T19:32:43.134Z,83.75
2018-12-17T19:35:11.752Z,83.60
2018-12-17T19:37:40.318Z,83.71
2018-12-17T19:40:09.244Z,83.90
2018-12-17T19:42:37.861Z,83.71
2018-12-17T19:45:06.650Z,83.42
2018-12-17T19:47:35.287Z,83.23
2018-12-17T19:50:04.381Z,83.42
2018-12-17T19:52:32.950Z,83.79
2018-12-17T19:55:01.540Z,84.53
2018-12-17T19:57:30.163Z,83.91
2018-12-17T19:59:58.716Z,84.59
2018-12-17T20:02:27.298Z,84.62
2018-12-17T20:04:55.896Z,85.25
2018-12-17T20:07:24.457Z,85.09
2018-12-17T20:09:53.085Z,85.29
2018-12-17T20:12:21.673Z,85.67
2018-12-17T20:14:50.387Z,85.73
2018-12-17T20:17:18.976Z,85.97
2018-12-17T20:19:47.566Z,86.63
2018-12-17T20:22:16.409Z,85.63
2018-12-17T20:24:45.351Z,86.39
2018-12-17T20:27:13.995Z,86.23
2018-12-17T20:29:42.651Z,85.80
2018-12-17T20:32:11.310Z,86.69
2018-12-17T20:34:39.998Z,86.74
2018-12-17T20:37:08.657Z,86.46
2018-12-17T20:39:37.298Z,86.27
2018-12-17T20:42:05.967Z,86.91
2018-12-17T20:44:34.623Z,86.59
2018-12-17T20:47:03.368Z,87.38
2018-12-17T20:49:31.985Z,87.63
2018-12-17T20:52:00.676Z,87.60
2018-12-17T20:54:29.299Z,87.89
2018-12-17T20:56:58.078Z,87.76
2018-12-17T20:59:26.717Z,87.42
2018-12-17T21:01:55.374Z,88.43
2018-12-17T21:04:24.003Z,88.60
2018-12-17T21:06:52.583Z,88.95
2018-12-17T21:09:21.312Z,88.64
2018-12-17T21:11:49.993Z,89.43
2018-12-17T21:14:23.736Z,88.36
2018-12-17T21:16:52.290Z,88.76
2018-12-17T21:19:21.114Z,89.09
2018-12-17T21:21:51.459Z,89.22
2018-12-17T21:24:21.277Z,89.93
2018-12-17T21:26:49.830Z,89.65
2018-12-17T21:29:18.452Z,89.55
2018-12-17T21:31:47.039Z,90.09
2018-12-17T21:34:16.165Z,89.91
2018-12-17T21:36:44.840Z,89.93
2018-12-17T21:39:13.604Z,90.75
2018-12-17T21:41:42.299Z,90.70
2018-12-17T21:44:10.971Z,90.40
2018-12-17T21:46:39.572Z,90.86
2018-12-17T21:49:08.240Z,89.88
2018-12-17T21:51:36.828Z,90.90
2018-12-17T21:54:05.798Z,90.41
2018-12-17T21:56:34.392Z,91.00
2018-12-17T21:59:03.096Z,90.57
2018-12-17T22:01:32.000Z,90.35
2018-12-17T22:04:00.544Z,90.92
2018-12-17T22:06:29.180Z,90.96
2018-12-17T22:08:57.741Z,91.20
2018-12-17T22:11:26.394Z,90.60
2018-12-17T22:13:55.930Z,90.81
2018-12-17T22:16:24.491Z,90.67
2018-12-17T22:18:53.063Z,90.56
2018-12-17T22:21:21.667Z,90.44
2018-12-17T22:23:50.319Z,90.93
2018-12-17T22:26:18.910Z,91.55
2018-12-17T22:28:47.480Z,92.05
2018-12-17T22:31:16.147Z,91.46
2018-12-17T22:33:44.665Z,91.75
2018-12-17T22:36:14.355Z,91.52
2018-12-17T22:38:42.932Z,91.34
2018-12-17T22:41:11.891Z,91.73
2018-12-17T22:43:40.483Z,92.16
2018-12-17T22:46:09.067Z,92.58
2018-12-17T22:48:37.612Z,93.17
2018-12-17T22:51:06.191Z,93.65
2018-12-17T22:53:34.729Z,92.72
2018-12-17T22:56:03.339Z,93.24
2018-12-17T22:58:31.913Z,93.37
2018-12-17T23:01:00.508Z,93.51
2018-12-17T23:03:29.183Z,93.93
2018-12-17T23:05:58.002Z,93.96
2018-12-17T23:08:26.887Z,94.46
2018-12-17T23:11:06.607Z,94.38
2018-12-17T23:13:46.312Z,94.07
2018-12-17T23:16:26.138Z,93.64
2018-12-17T23:18:53.634Z,93.85
2018-12-17T23:21:22.804Z,93.82
2018-12-17T23:23:51.539Z,94.52
2018-12-17T23:26:20.147Z,94.24
2018-12-17T23:28:48.757Z,94.14
2018-12-17T23:31:17.410Z,93.86
2018-12-17T23:33:46.119Z,93.74
2018-12-17T23:36:14.730Z,94.04
2018-12-17T23:38:43.437Z,93.50
2018-12-17T23:41:12.070Z,93.27
2018-12-17T23:43:40.722Z,93.87
2018-12-17T23:46:09.284Z,93.36
2018-12-17T23:48:37.935Z,93.97
2018-12-17T23:51:06.519Z,94.05
2018-12-17T23:53:35.125Z,93.72
2018-12-17T23:56:03.711Z,93.93
2018-12-17T23:58:32.292Z,94.21
